Time;durP1;ratioP1;P1;durP2;ratioP2;P2;SDS_P1;SDS_P2;PMS_P1;PMS_P2;Temp;Humidity;BMP_temperature;BMP_pressure;BME280_temperature;BME280_humidity;BME280_pressure;Samples;Min_cycle;Max_cycle;Signal;HPM_P1;HPM_P2
2022/10/15 00:00:44;;;;;;;0.10;0.10;;;;;;;13.01;100.00;100584.59;10368641;28;20105;-71
2022/10/15 00:05:45;;;;;;;0.10;0.10;;;;;;;13.03;100.00;100591.41;10366452;28;20010;-71
2022/10/15 00:10:45;;;;;;;0.10;0.10;;;;;;;13.05;100.00;100586.69;10371409;28;20022;-70
2022/10/15 00:15:45;;;;;;;0.10;0.10;;;;;;;13.10;100.00;100586.16;10369746;28;20249;-70
2022/10/15 00:20:45;;;;;;;0.00;0.00;;;;;;;13.13;100.00;100583.13;10369546;28;20034;-71
2022/10/15 00:25:46;;;;;;;0.10;0.10;;;;;;;13.14;100.00;100580.25;10334114;28;20018;-71
2022/10/15 00:30:46;;;;;;;0.07;0.07;;;;;;;13.14;100.00;100574.06;10336213;28;20033;-71
2022/10/15 00:35:46;;;;;;;0.10;0.10;;;;;;;13.17;100.00;100578.22;10366544;28;20390;-71
2022/10/15 00:40:47;;;;;;;0.10;0.10;;;;;;;13.16;100.00;100579.25;10331341;28;20018;-71
2022/10/15 00:45:47;;;;;;;0.10;0.10;;;;;;;13.17;100.00;100581.72;10329914;28;20014;-71
2022/10/15 00:50:47;;;;;;;0.10;0.10;;;;;;;13.18;100.00;100579.88;10336572;28;20029;-71
2022/10/15 00:55:49;;;;;;;0.00;0.00;;;;;;;13.16;100.00;100574.75;10350824;28;20381;-71
2022/10/15 01:00:50;;;;;;;0.10;0.10;;;;;;;13.10;100.00;100581.63;10366957;28;20022;-71
2022/10/15 01:05:51;;;;;;;0.10;0.10;;;;;;;13.05;100.00;100576.00;10364044;28;20022;-71
2022/10/15 01:11:19;;;;;;;0.10;0.10;;;;;;;13.02;100.00;100576.38;10346232;28;20351;-71
2022/10/15 01:16:49;;;;;;;0.00;0.00;;;;;;;12.94;100.00;100578.28;10368911;28;20025;-71
2022/10/15 01:22:03;;;;;;;0.10;0.10;;;;;;;12.88;100.00;100574.47;10369146;28;20022;-71
2022/10/15 01:27:20;;;;;;;0.10;0.10;;;;;;;12.84;100.00;100570.53;10357025;28;20030;-70
2022/10/15 01:32:28;;;;;;;0.00;0.00;;;;;;;12.84;100.00;100578.53;10341215;28;20037;-70
2022/10/15 01:38:08;;;;;;;0.10;0.10;;;;;;;12.83;100.00;100574.22;10328717;28;20056;-70
2022/10/15 01:43:19;;;;;;;0.00;0.00;;;;;;;12.84;100.00;100583.88;10326435;28;20551;-70
2022/10/15 01:48:21;;;;;;;0.10;0.10;;;;;;;12.81;100.00;100581.56;10328244;28;20038;-70
2022/10/15 01:53:25;;;;;;;0.10;0.10;;;;;;;12.80;100.00;100577.22;10327706;28;20021;-70
2022/10/15 01:58:26;;;;;;;;;;;;;;;12.77;100.00;100580.25;10343474;28;20057;-70
2022/10/15 02:03:26;;;;;;;0.10;0.10;;;;;;;12.73;100.00;100565.59;10356590;28;19955;-70
2022/10/15 02:08:41;;;;;;;0.10;0.10;;;;;;;12.62;100.00;100565.03;10366135;28;20163;-70
2022/10/15 02:14:00;;;;;;;0.10;0.10;;;;;;;12.45;100.00;100571.50;10367199;28;20028;-71
2022/10/15 02:19:25;;;;;;;0.10;0.10;;;;;;;12.21;100.00;100562.59;10367771;28;20104;-71
2022/10/15 02:24:32;;;;;;;0.10;0.10;;;;;;;12.04;100.00;100565.53;10367025;28;20382;-70
2022/10/15 02:29:35;;;;;;;0.10;0.10;;;;;;;11.97;100.00;100570.75;10367637;28;20022;-70
2022/10/15 02:34:36;;;;;;;0.00;0.00;;;;;;;11.89;100.00;100565.47;10349896;28;20033;-71
2022/10/15 02:39:36;;;;;;;0.10;0.10;;;;;;;11.87;100.00;100556.78;10367463;28;20382;-71
2022/10/15 02:44:37;;;;;;;0.10;0.10;;;;;;;11.89;100.00;100560.13;10366026;28;20040;-71
2022/10/15 02:49:37;;;;;;;0.10;0.10;;;;;;;11.91;100.00;100550.13;10367522;28;20723;-71
2022/10/15 02:54:37;;;;;;;0.10;0.10;;;;;;;11.96;100.00;100553.91;10366169;28;20389;-71
2022/10/15 02:59:38;;;;;;;0.00;0.00;;;;;;;12.00;100.00;100557.06;10366980;28;20045;-71
2022/10/15 03:04:38;;;;;;;0.10;0.10;;;;;;;12.04;100.00;100545.03;10357261;28;20022;-71
2022/10/15 03:09:38;;;;;;;0.10;0.10;;;;;;;12.05;100.00;100554.72;10361544;28;20469;-70
2022/10/15 03:14:39;;;;;;;0.10;0.10;;;;;;;12.07;100.00;100555.38;10366196;28;20010;-70
2022/10/15 03:19:39;;;;;;;0.10;0.10;;;;;;;12.08;100.00;100553.53;10373622;28;20029;-72
2022/10/15 03:24:39;;;;;;;0.10;0.10;;;;;;;12.06;100.00;100555.53;10374070;28;20368;-72
2022/10/15 03:29:39;;;;;;;0.10;0.10;;;;;;;12.04;100.00;100550.34;10374375;28;20581;-70
2022/10/15 03:34:40;;;;;;;0.10;0.10;;;;;;;12.04;100.00;100552.19;10448184;23;20045;-74
2022/10/15 03:39:40;;;;;;;0.10;0.10;;;;;;;12.00;100.00;100551.72;10428622;28;20029;-73
2022/10/15 03:44:41;;;;;;;0.10;0.10;;;;;;;11.99;100.00;100547.41;10452589;28;20021;-73
2022/10/15 03:49:41;;;;;;;0.10;0.10;;;;;;;11.95;100.00;100546.06;10432177;28;20033;-72
2022/10/15 03:54:41;;;;;;;0.00;0.00;;;;;;;11.92;100.00;100543.75;10420498;28;20547;-72
2022/10/15 03:59:42;;;;;;;0.00;0.00;;;;;;;11.90;100.00;100553.78;10428370;28;20024;-73
2022/10/15 04:04:43;;;;;;;0.10;0.10;;;;;;;11.87;100.00;100554.13;10428461;28;20048;-73
2022/10/15 04:09:43;;;;;;;0.10;0.10;;;;;;;11.84;100.00;100549.94;10428053;28;20080;-73
2022/10/15 04:14:43;;;;;;;0.10;0.10;;;;;;;11.83;100.00;100547.44;10430266;28;20090;-73
2022/10/15 04:19:43;;;;;;;0.10;0.10;;;;;;;11.83;100.00;100566.13;10432365;28;20030;-73
2022/10/15 04:24:44;;;;;;;0.10;0.10;;;;;;;11.81;100.00;100563.66;10437487;28;20032;-73
2022/10/15 04:29:46;;;;;;;0.00;0.00;;;;;;;11.77;100.00;100562.31;10429707;28;20396;-73
2022/10/15 04:34:48;;;;;;;0.10;0.10;;;;;;;11.75;100.00;100562.50;10429096;28;20022;-73
2022/10/15 04:39:49;;;;;;;0.10;0.10;;;;;;;11.74;100.00;100571.50;10418522;28;20021;-73
2022/10/15 04:44:49;;;;;;;0.10;0.10;;;;;;;11.74;100.00;100571.50;10421010;28;20048;-73
2022/10/15 04:49:49;;;;;;;0.10;0.10;;;;;;;11.71;100.00;100571.84;10448198;28;20025;-72
2022/10/15 04:54:49;;;;;;;0.10;0.10;;;;;;;11.70;100.00;100578.19;10430661;28;20227;-73
2022/10/15 04:59:51;;;;;;;0.10;0.10;;;;;;;11.70;100.00;100580.84;10452131;28;20024;-73
2022/10/15 05:04:51;;;;;;;0.10;0.10;;;;;;;11.68;100.00;100582.84;10429037;28;20035;-76
2022/10/15 05:09:52;;;;;;;0.10;0.10;;;;;;;11.71;100.00;100585.19;10428059;28;20024;-76
2022/10/15 05:14:52;;;;;;;0.10;0.10;;;;;;;11.70;100.00;100593.38;10434085;28;20021;-76
2022/10/15 05:19:52;;;;;;;0.10;0.10;;;;;;;11.70;100.00;100599.53;10434008;28;20514;-76
2022/10/15 05:24:53;;;;;;;0.10;0.10;;;;;;;11.71;100.00;100595.84;10424703;28;20025;-77
2022/10/15 05:29:53;;;;;;;0.10;0.10;;;;;;;11.72;100.00;100594.88;10429889;28;20075;-76
2022/10/15 05:34:53;;;;;;;0.10;0.10;;;;;;;11.72;100.00;100597.53;10430732;28;20028;-76
2022/10/15 05:39:54;;;;;;;0.10;0.10;;;;;;;11.73;100.00;100607.19;10432168;28;20041;-76
2022/10/15 05:44:54;;;;;;;0.00;0.00;;;;;;;11.74;100.00;100610.69;10433621;28;20082;-76
2022/10/15 05:49:54;;;;;;;0.10;0.10;;;;;;;11.74;100.00;100611.50;10437829;28;20041;-76
2022/10/15 05:54:54;;;;;;;0.10;0.10;;;;;;;11.75;100.00;100612.34;10425058;28;20025;-76
2022/10/15 05:59:55;;;;;;;0.10;0.10;;;;;;;11.74;100.00;100614.19;10433437;28;20490;-76
2022/10/15 06:04:55;;;;;;;0.10;0.10;;;;;;;11.76;100.00;100617.53;10414091;28;20480;-76
2022/10/15 06:09:55;;;;;;;0.10;0.10;;;;;;;11.76;100.00;100622.84;10430663;28;20537;-76
2022/10/15 06:14:56;;;;;;;0.00;0.00;;;;;;;11.78;100.00;100625.38;10432046;28;20085;-76
2022/10/15 06:19:56;;;;;;;0.10;0.10;;;;;;;11.79;100.00;100627.03;10432000;28;20387;-76
2022/10/15 06:24:56;;;;;;;0.10;0.10;;;;;;;11.81;100.00;100627.69;10434134;28;20056;-76
2022/10/15 06:29:56;;;;;;;0.08;0.08;;;;;;;11.82;100.00;100626.69;10427727;28;20263;-76
2022/10/15 06:34:57;;;;;;;0.10;0.10;;;;;;;11.86;100.00;100627.19;10432673;28;20430;-76
2022/10/15 06:39:57;;;;;;;0.10;0.10;;;;;;;11.86;100.00;100622.69;10428837;28;20025;-76
2022/10/15 06:44:57;;;;;;;0.10;0.10;;;;;;;11.89;100.00;100614.31;10425844;28;20035;-76
2022/10/15 06:49:58;;;;;;;0.10;0.10;;;;;;;11.93;100.00;100617.50;10429948;28;20018;-76
2022/10/15 06:54:58;;;;;;;0.10;0.10;;;;;;;11.98;100.00;100621.31;10444170;28;20099;-76
2022/10/15 06:59:59;;;;;;;0.00;0.00;;;;;;;12.06;100.00;100628.44;10443888;28;20025;-76
2022/10/15 07:04:59;;;;;;;0.10;0.10;;;;;;;12.09;100.00;100625.44;10441894;28;20104;-76
2022/10/15 07:09:59;;;;;;;0.10;0.10;;;;;;;12.16;100.00;100638.94;10455274;28;20032;-76
2022/10/15 07:15:00;;;;;;;0.10;0.10;;;;;;;12.21;100.00;100636.53;10436592;28;20059;-76
2022/10/15 07:20:00;;;;;;;0.10;0.10;;;;;;;12.26;100.00;100638.72;10448792;28;20104;-76
2022/10/15 07:25:00;;;;;;;0.05;0.05;;;;;;;12.34;100.00;100633.34;10442095;28;20021;-76
2022/10/15 07:30:01;;;;;;;0.10;0.10;;;;;;;12.38;100.00;100634.63;10447114;28;20021;-76
2022/10/15 07:35:01;;;;;;;0.10;0.10;;;;;;;12.36;100.00;100648.19;10447237;28;20096;-76
2022/10/15 07:40:02;;;;;;;0.00;0.00;;;;;;;12.33;100.00;100643.16;10432447;28;20060;-76
2022/10/15 07:45:02;;;;;;;0.10;0.10;;;;;;;12.43;100.00;100642.97;10440690;28;20017;-74
2022/10/15 07:50:03;;;;;;;0.10;0.10;;;;;;;12.55;100.00;100649.56;10432162;28;20025;-76
2022/10/15 07:55:03;;;;;;;0.00;0.00;;;;;;;12.81;100.00;100645.72;10436278;28;20014;-76
2022/10/15 08:00:05;;;;;;;0.10;0.10;;;;;;;13.01;100.00;100654.09;10434000;28;20033;-76
2022/10/15 08:05:06;;;;;;;0.10;0.10;;;;;;;13.16;100.00;100648.78;10435861;28;20044;-76
2022/10/15 08:10:08;;;;;;;0.10;0.10;;;;;;;13.36;100.00;100656.16;10439732;28;20383;-75
2022/10/15 08:15:09;;;;;;;0.00;0.00;;;;;;;14.05;100.00;100652.44;10441227;28;20017;-76
2022/10/15 08:20:10;;;;;;;0.10;0.10;;;;;;;14.79;100.00;100644.22;10420893;28;20047;-76
2022/10/15 08:25:10;;;;;;;0.10;0.10;;;;;;;15.04;100.00;100658.09;10410690;28;20100;-76
2022/10/15 08:30:11;;;;;;;0.10;0.10;;;;;;;14.77;100.00;100661.50;10424300;28;20026;-75
2022/10/15 08:35:11;;;;;;;0.00;0.00;;;;;;;14.64;100.00;100659.53;10433834;28;20525;-76
2022/10/15 08:40:13;;;;;;;0.10;0.10;;;;;;;14.90;100.00;100653.63;10436560;28;20029;-75
2022/10/15 08:45:33;;;;;;;0.00;0.00;;;;;;;15.58;100.00;100651.28;10430513;28;20018;-76
2022/10/15 08:50:44;;;;;;;0.00;0.00;;;;;;;16.27;100.00;100659.31;10424530;28;20029;-76
2022/10/15 08:55:48;;;;;;;0.08;0.08;;;;;;;16.90;100.00;100659.13;10440093;28;20262;-76
2022/10/15 09:00:52;;;;;;;0.10;0.10;;;;;;;16.84;100.00;100661.78;10421996;28;20397;-74
2022/10/15 09:06:18;;;;;;;0.10;0.10;;;;;;;16.76;100.00;100662.84;10433170;28;20745;-76
2022/10/15 09:11:40;;;;;;;0.10;0.10;;;;;;;16.78;100.00;100665.31;10442119;28;20029;-75
2022/10/15 09:16:43;;;;;;;0.00;0.00;;;;;;;16.82;100.00;100663.88;10435872;28;20055;-75
2022/10/15 09:21:46;;;;;;;0.00;0.00;;;;;;;16.73;100.00;100669.41;10430617;28;20021;-76
2022/10/15 09:26:51;;;;;;;0.10;0.10;;;;;;;16.64;100.00;100667.94;10441495;28;20367;-76
2022/10/15 09:32:20;;;;;;;0.00;0.00;;;;;;;16.23;100.00;100670.66;10437607;22;20042;-75
2022/10/15 09:37:28;;;;;;;0.00;0.00;;;;;;;16.32;100.00;100664.13;10402222;28;20400;-76
2022/10/15 09:42:33;;;;;;;0.00;0.00;;;;;;;16.70;100.00;100648.31;10409489;28;20021;-75
2022/10/15 09:47:34;;;;;;;0.00;0.00;;;;;;;16.92;100.00;100651.66;10409791;28;20053;-75
2022/10/15 09:52:40;;;;;;;0.10;0.10;;;;;;;17.06;100.00;100649.81;10409131;28;20388;-75
2022/10/15 09:57:44;;;;;;;0.00;0.00;;;;;;;17.04;100.00;100643.00;10384116;28;20085;-76
2022/10/15 10:03:05;;;;;;;0.05;0.05;;;;;;;17.02;100.00;100645.91;10382865;28;20057;-76
2022/10/15 10:08:15;;;;;;;0.10;0.10;;;;;;;16.87;100.00;100653.31;10368521;28;20083;-75
2022/10/15 10:13:26;;;;;;;0.00;0.00;;;;;;;16.76;100.00;100649.38;10366508;28;20477;-76
2022/10/15 10:18:27;;;;;;;0.10;0.10;;;;;;;16.50;100.00;100653.63;10368040;28;20473;-75
2022/10/15 10:23:38;;;;;;;0.10;0.10;;;;;;;16.34;100.00;100647.78;10367404;28;20025;-75
2022/10/15 10:28:55;;;;;;;0.10;0.10;;;;;;;16.26;100.00;100646.06;10383329;28;20497;-76
2022/10/15 10:34:00;;;;;;;0.00;0.00;;;;;;;16.23;100.00;100641.09;10386896;28;20030;-75
2022/10/15 10:39:20;;;;;;;0.10;0.10;;;;;;;16.24;100.00;100630.16;10367779;28;20022;-76
2022/10/15 10:44:30;;;;;;;0.10;0.10;;;;;;;16.36;100.00;100629.59;10365672;28;20500;-75
2022/10/15 10:49:36;;;;;;;0.00;0.00;;;;;;;16.10;100.00;100630.31;10383701;28;20025;-75
2022/10/15 10:54:36;;;;;;;0.00;0.00;;;;;;;16.19;100.00;100640.69;10407587;28;20018;-76
2022/10/15 10:59:47;;;;;;;0.10;0.10;;;;;;;16.44;100.00;100635.63;10407307;28;20021;-76
2022/10/15 11:04:47;;;;;;;0.00;0.00;;;;;;;16.52;100.00;100627.38;10365364;28;20076;-76
2022/10/15 11:10:05;;;;;;;0.10;0.10;;;;;;;16.67;100.00;100626.38;10378317;28;20436;-76
2022/10/15 11:15:30;;;;;;;0.10;0.10;;;;;;;16.71;100.00;100630.31;10366125;28;20018;-76
2022/10/15 11:21:06;;;;;;;0.10;0.10;;;;;;;16.67;100.00;100626.38;10367356;28;20984;-76
2022/10/15 11:26:29;;;;;;;0.10;0.10;;;;;;;16.63;100.00;100623.25;10406727;28;20028;-77
2022/10/15 11:31:43;;;;;;;0.00;0.00;;;;;;;16.61;100.00;100622.63;10391683;28;20038;-76
2022/10/15 11:37:00;;;;;;;0.00;0.00;;;;;;;16.64;100.00;100624.06;10366264;28;20025;-76
2022/10/15 11:42:12;;;;;;;0.10;0.10;;;;;;;16.81;100.00;100627.22;10379416;28;20084;-76
2022/10/15 11:47:37;;;;;;;0.10;0.10;;;;;;;16.90;100.00;100626.00;10371797;28;20105;-76
2022/10/15 11:52:44;;;;;;;0.00;0.00;;;;;;;16.82;100.00;100621.66;10373540;28;20083;-76
2022/10/15 11:57:47;;;;;;;0.00;0.00;;;;;;;16.55;100.00;100610.00;10373910;28;20096;-76
2022/10/15 12:02:49;;;;;;;0.00;0.00;;;;;;;16.35;100.00;100618.03;10370996;28;20294;-76
2022/10/15 12:07:50;;;;;;;0.10;0.10;;;;;;;16.27;100.00;100596.69;10371946;28;20036;-77
2022/10/15 12:13:21;;;;;;;0.00;0.00;;;;;;;16.26;100.00;100585.13;10372569;28;20545;-77
2022/10/15 12:18:26;;;;;;;0.10;0.10;;;;;;;16.28;100.00;100580.34;10396041;28;20112;-76
2022/10/15 12:23:33;;;;;;;0.00;0.00;;;;;;;16.25;100.00;100570.00;10412428;28;20564;-77
2022/10/15 12:28:33;;;;;;;0.10;0.10;;;;;;;16.27;100.00;100549.16;10411270;28;20100;-77
2022/10/15 12:33:46;;;;;;;0.00;0.00;;;;;;;16.30;100.00;100553.28;10380223;28;20116;-77
2022/10/15 12:39:04;;;;;;;0.00;0.00;;;;;;;16.32;100.00;100553.06;10372117;28;20264;-76
2022/10/15 12:44:15;;;;;;;0.00;0.00;;;;;;;16.33;100.00;100557.44;10369861;28;20021;-77
2022/10/15 12:49:25;;;;;;;0.10;0.10;;;;;;;16.34;100.00;100561.75;10376824;28;20013;-77
2022/10/15 12:54:36;;;;;;;0.00;0.00;;;;;;;16.33;100.00;100558.25;10411505;28;20049;-77
2022/10/15 12:59:42;;;;;;;0.00;0.00;;;;;;;16.41;100.00;100558.06;10412065;28;20370;-77
2022/10/15 13:04:42;;;;;;;0.00;0.00;;;;;;;16.59;100.00;100549.41;10368555;28;20022;-77
2022/10/15 13:09:43;;;;;;;0.00;0.00;;;;;;;16.64;100.00;100549.63;10372848;28;20381;-77
2022/10/15 13:14:51;;;;;;;0.00;0.00;;;;;;;16.51;100.00;100552.28;10367642;28;20384;-77
2022/10/15 13:20:07;;;;;;;0.10;0.10;;;;;;;16.22;100.00;100538.16;10370897;28;20276;-77
2022/10/15 13:25:17;;;;;;;0.10;0.10;;;;;;;16.18;100.00;100536.94;10381497;28;20025;-76
2022/10/15 13:30:17;;;;;;;0.00;0.00;;;;;;;16.14;100.00;100530.28;10372554;28;20511;-76
2022/10/15 13:35:28;;;;;;;0.10;0.10;;;;;;;16.26;100.00;100512.56;10407931;28;20049;-76
2022/10/15 13:40:29;;;;;;;0.10;0.10;;;;;;;16.24;100.00;100500.34;10402088;28;20473;-76
2022/10/15 13:45:30;;;;;;;0.10;0.10;;;;;;;16.25;100.00;100494.75;10406171;28;20071;-76
2022/10/15 13:50:33;;;;;;;0.00;0.00;;;;;;;16.30;100.00;100491.47;10409886;28;20379;-76
2022/10/15 13:55:36;;;;;;;;;;;;;;;16.23;100.00;100494.16;10409063;28;20058;-77
2022/10/15 14:00:36;;;;;;;0.00;0.00;;;;;;;16.28;100.00;100497.03;10387064;28;19909;-77
2022/10/15 14:05:37;;;;;;;0.10;0.10;;;;;;;16.34;100.00;100487.31;10367644;28;20026;-76
2022/10/15 14:10:37;;;;;;;0.00;0.00;;;;;;;16.27;100.00;100468.50;10368219;28;20030;-76
2022/10/15 14:15:42;;;;;;;0.00;0.00;;;;;;;16.09;100.00;100467.47;10367218;28;20392;-77
2022/10/15 14:20:46;;;;;;;0.00;0.00;;;;;;;16.10;100.00;100463.75;10368173;28;20028;-77
2022/10/15 14:25:55;;;;;;;0.05;0.05;;;;;;;16.11;100.00;100466.22;10366873;28;20121;-76
2022/10/15 14:30:56;;;;;;;0.00;0.00;;;;;;;16.13;100.00;100485.66;10367966;28;20481;-77
2022/10/15 14:36:08;;;;;;;0.10;0.10;;;;;;;16.09;100.00;100492.47;10398546;28;20023;-76
2022/10/15 14:41:26;;;;;;;0.00;0.00;;;;;;;15.98;100.00;100498.44;10397361;28;20104;-78
2022/10/15 14:46:35;;;;;;;0.10;0.10;;;;;;;15.91;100.00;100494.88;10366531;28;20042;-76
2022/10/15 14:51:35;;;;;;;0.10;0.10;;;;;;;15.81;100.00;100476.47;10366595;28;20014;-76
2022/10/15 14:56:36;;;;;;;0.10;0.10;;;;;;;15.74;100.00;100487.22;10367244;28;20550;-77
2022/10/15 15:01:36;;;;;;;0.00;0.00;;;;;;;15.68;100.00;100487.16;10369632;28;20275;-77
2022/10/15 15:06:36;;;;;;;0.13;0.13;;;;;;;15.69;100.00;100486.16;10408434;28;20028;-76
2022/10/15 15:11:36;;;;;;;0.10;0.10;;;;;;;15.63;100.00;100480.53;10395461;28;20021;-77
2022/10/15 15:16:37;;;;;;;0.10;0.10;;;;;;;15.60;100.00;100486.28;10415613;28;20021;-77
2022/10/15 15:21:37;;;;;;;0.10;0.10;;;;;;;15.57;100.00;100480.50;10414827;28;20512;-77
2022/10/15 15:26:37;;;;;;;0.00;0.00;;;;;;;15.55;100.00;100471.81;10415135;28;20652;-76
2022/10/15 15:31:38;;;;;;;0.10;0.10;;;;;;;15.50;100.00;100475.09;10414376;28;20424;-76
2022/10/15 15:36:38;;;;;;;0.00;0.00;;;;;;;15.41;100.00;100478.97;10350037;23;20424;-74
2022/10/15 15:41:38;;;;;;;0.10;0.10;;;;;;;15.32;100.00;100475.63;10318188;28;20446;-74
2022/10/15 15:46:39;;;;;;;0.10;0.10;;;;;;;15.30;100.00;100483.06;10323743;28;20030;-74
2022/10/15 15:51:40;;;;;;;0.10;0.10;;;;;;;15.21;100.00;100486.91;10314460;28;20269;-73
2022/10/15 15:56:40;;;;;;;0.00;0.00;;;;;;;15.12;100.00;100480.88;10324813;28;20027;-73
2022/10/15 16:01:40;;;;;;;0.10;0.10;;;;;;;15.00;100.00;100470.91;10310730;28;20524;-76
2022/10/15 16:06:41;;;;;;;0.00;0.00;;;;;;;14.79;100.00;100483.34;10302827;28;20019;-74
2022/10/15 16:11:41;;;;;;;0.03;0.03;;;;;;;14.65;100.00;100481.59;10323241;28;20015;-74
2022/10/15 16:16:42;;;;;;;0.10;0.10;;;;;;;14.55;100.00;100478.44;10311869;28;20062;-74
2022/10/15 16:21:42;;;;;;;0.08;0.08;;;;;;;14.46;100.00;100481.22;10304717;28;20270;-74
2022/10/15 16:26:43;;;;;;;0.10;0.10;;;;;;;14.38;100.00;100475.97;10301848;28;20029;-74
2022/10/15 16:31:43;;;;;;;0.10;0.10;;;;;;;14.32;100.00;100483.97;10285505;28;20029;-74
2022/10/15 16:36:43;;;;;;;0.10;0.10;;;;;;;14.29;100.00;100468.28;10324504;28;20473;-74
2022/10/15 16:41:44;;;;;;;0.10;0.10;;;;;;;14.25;100.00;100467.81;10316578;28;20023;-74
2022/10/15 16:46:44;;;;;;;0.00;0.00;;;;;;;14.21;100.00;100475.41;10331070;28;20034;-74
2022/10/15 16:51:44;;;;;;;0.10;0.10;;;;;;;14.19;100.00;100474.75;10317880;28;20026;-74
2022/10/15 16:56:45;;;;;;;0.00;0.00;;;;;;;14.19;100.00;100476.59;10308831;28;20023;-74
2022/10/15 17:01:45;;;;;;;0.10;0.10;;;;;;;14.16;100.00;100463.59;10304128;28;20092;-74
2022/10/15 17:06:45;;;;;;;0.10;0.10;;;;;;;14.15;100.00;100478.03;10319887;28;20717;-74
2022/10/15 17:11:46;;;;;;;0.10;0.10;;;;;;;14.15;100.00;100491.41;10322301;28;20030;-74
2022/10/15 17:16:49;;;;;;;0.00;0.00;;;;;;;14.12;100.00;100486.44;10326507;28;20043;-74
2022/10/15 17:21:51;;;;;;;0.10;0.10;;;;;;;14.09;100.00;100484.97;10313791;28;20484;-76
2022/10/15 17:26:51;;;;;;;0.10;0.10;;;;;;;14.08;100.00;100494.03;10306594;28;20038;-75
2022/10/15 17:31:51;;;;;;;0.10;0.10;;;;;;;14.06;100.00;100501.41;10288518;28;20037;-75
2022/10/15 17:36:54;;;;;;;0.10;0.10;;;;;;;14.08;100.00;100502.06;10314866;28;20678;-75
2022/10/15 17:41:54;;;;;;;0.10;0.10;;;;;;;14.07;100.00;100483.50;10307731;28;20033;-75
2022/10/15 17:46:54;;;;;;;0.10;0.10;;;;;;;14.06;100.00;100505.94;10306854;28;20030;-74
2022/10/15 17:51:55;;;;;;;0.10;0.10;;;;;;;14.05;100.00;100502.44;10307512;28;20064;-76
2022/10/15 17:56:55;;;;;;;0.10;0.10;;;;;;;14.06;100.00;100514.81;10302649;28;20489;-77
2022/10/15 18:01:57;;;;;;;0.08;0.08;;;;;;;14.09;100.00;100513.59;10294371;28;20026;-77
2022/10/15 18:06:57;;;;;;;0.10;0.10;;;;;;;14.13;100.00;100536.31;10310630;28;20019;-77
2022/10/15 18:12:00;;;;;;;0.10;0.10;;;;;;;14.15;100.00;100524.38;10283646;28;20022;-77
2022/10/15 18:17:00;;;;;;;0.10;0.10;;;;;;;14.18;100.00;100528.53;10310234;28;20466;-77
2022/10/15 18:22:00;;;;;;;0.10;0.10;;;;;;;14.23;100.00;100534.97;10324581;28;20026;-77
2022/10/15 18:27:01;;;;;;;0.10;0.10;;;;;;;14.27;100.00;100544.28;10306025;28;20487;-77
2022/10/15 18:32:01;;;;;;;0.00;0.00;;;;;;;14.34;100.00;100547.06;10316354;28;20034;-77
2022/10/15 18:37:02;;;;;;;0.00;0.00;;;;;;;14.37;100.00;100544.00;10305663;28;20014;-77
2022/10/15 18:42:02;;;;;;;0.10;0.10;;;;;;;14.35;100.00;100547.88;10308288;28;20022;-77
2022/10/15 18:47:02;;;;;;;0.00;0.00;;;;;;;14.26;100.00;100556.03;10307388;28;20386;-77
2022/10/15 18:52:03;;;;;;;0.10;0.10;;;;;;;14.16;100.00;100557.34;10309060;28;20352;-77
2022/10/15 18:57:04;;;;;;;0.10;0.10;;;;;;;14.08;100.00;100554.78;10311671;28;20592;-77
2022/10/15 19:02:04;;;;;;;0.00;0.00;;;;;;;14.04;100.00;100583.78;10307638;28;20026;-77
2022/10/15 19:07:04;;;;;;;0.10;0.10;;;;;;;14.01;100.00;100586.84;10304098;28;20109;-77
2022/10/15 19:12:05;;;;;;;0.10;0.10;;;;;;;14.03;100.00;100579.47;10311746;28;20033;-77
2022/10/15 19:17:05;;;;;;;0.10;0.10;;;;;;;14.01;100.00;100603.75;10303770;28;20030;-77
2022/10/15 19:22:05;;;;;;;0.10;0.10;;;;;;;14.02;100.00;100604.56;10296738;28;20031;-77
2022/10/15 19:27:06;;;;;;;0.10;0.10;;;;;;;13.97;100.00;100612.34;10314062;28;20025;-77
2022/10/15 19:32:06;;;;;;;0.10;0.10;;;;;;;13.94;100.00;100612.72;10312312;28;20288;-76
2022/10/15 19:37:07;;;;;;;0.10;0.10;;;;;;;13.98;100.00;100617.50;10309230;28;20018;-77
2022/10/15 19:42:08;;;;;;;0.00;0.00;;;;;;;14.06;100.00;100632.66;10306086;28;20022;-76
2022/10/15 19:47:09;;;;;;;0.10;0.10;;;;;;;14.13;100.00;100635.41;10305018;28;20021;-77
2022/10/15 19:52:09;;;;;;;0.00;0.00;;;;;;;14.20;100.00;100644.38;10308002;28;20109;-77
2022/10/15 19:57:10;;;;;;;0.10;0.10;;;;;;;14.17;100.00;100642.88;10300694;28;20029;-77
2022/10/15 20:02:11;;;;;;;0.05;0.05;;;;;;;14.18;100.00;100646.41;10305631;28;20367;-76
2022/10/15 20:07:11;;;;;;;0.10;0.10;;;;;;;14.18;100.00;100663.28;10294628;28;20027;-75
2022/10/15 20:12:12;;;;;;;0.10;0.10;;;;;;;14.15;100.00;100652.94;10294810;28;20102;-75
2022/10/15 20:17:12;;;;;;;0.10;0.10;;;;;;;14.11;100.00;100666.88;10296841;28;20019;-75
2022/10/15 20:22:12;;;;;;;0.10;0.10;;;;;;;14.09;100.00;100668.94;10320729;28;20394;-75
2022/10/15 20:27:13;;;;;;;0.10;0.10;;;;;;;14.03;100.00;100673.19;10293660;28;20027;-75
2022/10/15 20:32:15;;;;;;;0.10;0.10;;;;;;;13.99;100.00;100690.63;10296008;28;20038;-75
2022/10/15 20:37:16;;;;;;;0.10;0.10;;;;;;;13.94;100.00;100704.59;10333609;28;20266;-75
2022/10/15 20:42:16;;;;;;;0.00;0.00;;;;;;;13.90;100.00;100713.97;10333368;28;20027;-76
2022/10/15 20:47:17;;;;;;;0.10;0.10;;;;;;;13.82;100.00;100733.66;10314196;28;20077;-78
2022/10/15 20:52:19;;;;;;;0.10;0.10;;;;;;;13.72;100.00;100738.44;10275506;28;20034;-75
2022/10/15 20:57:19;;;;;;;0.10;0.10;;;;;;;13.62;100.00;100735.19;10293339;28;20553;-75
2022/10/15 21:02:20;;;;;;;0.10;0.10;;;;;;;13.52;100.00;100753.34;10332646;28;20057;-75
2022/10/15 21:07:20;;;;;;;0.10;0.10;;;;;;;13.42;100.00;100766.13;10332277;28;20034;-75
2022/10/15 21:12:20;;;;;;;0.10;0.10;;;;;;;13.27;100.00;100772.25;10330400;28;20084;-75
2022/10/15 21:17:20;;;;;;;0.10;0.10;;;;;;;13.14;100.00;100786.19;10302525;28;20030;-75
2022/10/15 21:22:21;;;;;;;0.10;0.10;;;;;;;13.07;100.00;100787.91;10298293;28;20085;-75
2022/10/15 21:27:21;;;;;;;0.10;0.10;;;;;;;12.99;100.00;100787.94;10278479;28;20105;-75
2022/10/15 21:32:21;;;;;;;0.10;0.10;;;;;;;12.91;100.00;100796.88;10291100;28;20383;-74
2022/10/15 21:37:22;;;;;;;0.10;0.10;;;;;;;12.84;100.00;100795.06;10293642;28;20109;-75
2022/10/15 21:42:22;;;;;;;0.00;0.00;;;;;;;12.80;100.00;100796.38;10290833;28;20638;-75
2022/10/15 21:47:23;;;;;;;0.10;0.10;;;;;;;12.74;100.00;100802.44;10290584;28;20054;-75
2022/10/15 21:52:24;;;;;;;0.10;0.10;;;;;;;12.69;100.00;100805.66;10328981;28;20066;-75
2022/10/15 21:57:24;;;;;;;0.00;0.00;;;;;;;12.64;100.00;100808.81;10330495;28;20050;-75
2022/10/15 22:02:24;;;;;;;0.10;0.10;;;;;;;12.59;100.00;100816.50;10319276;28;20070;-75
2022/10/15 22:07:25;;;;;;;0.10;0.10;;;;;;;12.54;100.00;100815.41;10329921;28;20446;-75
2022/10/15 22:12:25;;;;;;;0.10;0.10;;;;;;;12.45;100.00;100810.06;10329856;28;20070;-75
2022/10/15 22:17:25;;;;;;;0.10;0.10;;;;;;;12.41;100.00;100813.25;10306833;28;20262;-75
2022/10/15 22:22:25;;;;;;;0.10;0.10;;;;;;;12.35;100.00;100808.59;10289234;28;20026;-75
2022/10/15 22:27:26;;;;;;;0.10;0.10;;;;;;;12.36;100.00;100815.59;10289258;28;20125;-75
2022/10/15 22:32:26;;;;;;;0.00;0.00;;;;;;;12.32;100.00;100827.63;10410231;22;20041;-75
2022/10/15 22:37:27;;;;;;;0.10;0.10;;;;;;;12.28;100.00;100826.31;10415782;28;20169;-75
2022/10/15 22:42:27;;;;;;;0.10;0.10;;;;;;;12.18;100.00;100824.63;10437155;28;20024;-75
2022/10/15 22:47:27;;;;;;;0.10;0.10;;;;;;;12.10;100.00;100816.66;10448062;28;20282;-74
2022/10/15 22:52:27;;;;;;;0.10;0.10;;;;;;;12.08;100.00;100825.84;10435312;28;20021;-73
2022/10/15 22:57:28;;;;;;;0.10;0.10;;;;;;;12.03;100.00;100825.50;10407817;28;20379;-73